Main page
METAR-TAF:

METAR-TAF

Airports :

MOD St Athan

St Athan, Wales

latitude: 51-24N, longitude: 003-26W, elevation: 50 m

Current weather observation

The report was made 1 hour and 4 minutes ago, at 06:50 UTC
Wind 3 kt from the East/Northeast
Temperature 4°C
Humidity 100%
Pressure 1014 hPa
Visibility: 7000 m
mist

METAR: EGDX 200650Z AUTO 07003KT 7000 BR SCT032/// BKN060/// 04/04 Q1014

Time: 07:54 (07:54 UTC)

Forecast

The report was made 2 hours and 15 minutes ago, at 05:39 UTC
Forecast valid from 20 at 07 UTC to 20 at 15 UTC
Wind 5 kt from the North/Northeast
Visibility: 6000 m
Broken clouds at a height of 1500 ft
mist
Temporary
from 20 at 07 UTC to 20 at 15 UTC
Broken clouds at a height of 1000 ft
Probability 40%
from 20 at 07 UTC to 20 at 11 UTC
Visibility: 4000 m
Broken clouds at a height of 500 ft
Becoming
from 20 at 10 UTC to 20 at 13 UTC
Visibility: 9000 m
haze

TAF: EGDX 200539Z 2007/2015 03005KT 6000 BR BKN015 TEMPO 2007/2015 BKN010 PROB40 2007/2011 4000 BKN005 BECMG 2010/2013 9000 HZ

Weather observations and forecasts of more than 4000 airports (METAR and TAF reports).

The available stations are represented by yellow and red dots on the map.

Hover mouse over dot to see the name of the station.

Then click to see weather observations and forecasts.

To change the map : click on the green buttons with a black cross to zoom in, on the green button with a dash to zoom out, or on the green arrows for adjacent maps.


METAR-TAF: